createdAt,value
2022-10-21T00:00:01.935Z,10.8
2022-10-21T00:05:03.139Z,10.8
2022-10-21T00:10:02.239Z,10.8
2022-10-21T00:15:02.539Z,10.8
2022-10-21T00:20:03.555Z,10.8
2022-10-21T00:25:01.742Z,10.8
2022-10-21T00:30:02.017Z,10.8
2022-10-21T00:35:02.041Z,10.8
2022-10-21T00:40:02.330Z,10.8
2022-10-21T00:45:04.399Z,10.8
2022-10-21T00:50:02.450Z,10.8
2022-10-21T00:55:02.612Z,10.8
2022-10-21T01:00:03.052Z,10.8
2022-10-21T01:05:01.901Z,10.8
2022-10-21T01:10:02.029Z,10.8
2022-10-21T01:20:05.143Z,10.8
2022-10-21T01:25:02.466Z,10.8
2022-10-21T01:30:03.904Z,10.8
2022-10-21T01:35:01.758Z,10.8
2022-10-21T01:40:01.915Z,10.8
2022-10-21T01:45:02.214Z,10.8
2022-10-21T01:50:04.161Z,10.8
2022-10-21T01:55:02.357Z,10.8
2022-10-21T02:00:02.607Z,10.8
2022-10-21T02:05:02.746Z,10.8
2022-10-21T02:10:01.785Z,10.8
2022-10-21T02:15:02.012Z,10.8
2022-10-21T02:20:02.165Z,10.8
2022-10-21T02:25:02.208Z,10.8
2022-10-21T02:30:02.510Z,10.8
2022-10-21T02:35:02.614Z,10.8
2022-10-21T02:40:02.631Z,10.8
2022-10-21T02:45:01.789Z,10.8
2022-10-21T02:50:02.001Z,10.8
2022-10-21T02:55:03.463Z,10.8
2022-10-21T03:00:19.359Z,10.8
2022-10-21T03:05:23.835Z,10.8
2022-10-21T03:10:03.530Z,10.8
2022-10-21T03:15:03.692Z,10.8
2022-10-21T03:20:03.366Z,10.8
2022-10-21T03:25:07.294Z,10.8
2022-10-21T03:30:05.544Z,10.8
2022-10-21T03:35:10.243Z,10.8
2022-10-21T03:40:03.600Z,10.8
2022-10-21T03:45:10.844Z,10.8
2022-10-21T03:50:02.211Z,10.8
2022-10-21T03:55:01.984Z,10.8
2022-10-21T04:00:03.894Z,10.8
2022-10-21T04:05:03.370Z,10.8
2022-10-21T04:10:02.400Z,10.8
2022-10-21T04:15:02.612Z,10.8
2022-10-21T04:20:02.741Z,10.8
2022-10-21T04:25:03.787Z,10.8
2022-10-21T04:30:02.332Z,10.8
2022-10-21T04:35:03.461Z,10.8
2022-10-21T04:40:03.625Z,10.8
2022-10-21T04:45:03.105Z,10.8
2022-10-21T04:50:01.838Z,10.8
2022-10-21T04:55:03.051Z,10.8
2022-10-21T05:00:02.224Z,10.8
2022-10-21T05:05:03.404Z,10.8
2022-10-21T05:10:03.618Z,10.8
2022-10-21T05:15:02.779Z,10.8
2022-10-21T05:20:01.829Z,10.8
2022-10-21T05:25:01.977Z,10.8
2022-10-21T05:30:02.216Z,10.8
2022-10-21T05:35:03.315Z,10.8
2022-10-21T05:40:03.556Z,10.8
2022-10-21T05:45:02.681Z,10.8
2022-10-21T05:50:02.730Z,10.8
2022-10-21T05:55:02.022Z,10.8
2022-10-21T06:00:02.152Z,10.8
2022-10-21T06:05:03.374Z,10.8
2022-10-21T06:10:03.450Z,10.3
2022-10-21T06:15:03.823Z,10.2
2022-10-21T06:20:02.646Z,10.3
2022-10-21T06:25:01.831Z,10.3
2022-10-21T06:30:02.274Z,10.3
2022-10-21T06:35:03.306Z,10.3
2022-10-21T06:40:03.403Z,10.3
2022-10-21T06:45:03.782Z,10.3
2022-10-21T06:50:02.623Z,10.4
2022-10-21T06:55:02.772Z,10.5
2022-10-21T07:00:03.331Z,10.5
2022-10-21T07:05:03.256Z,10.6
2022-10-21T07:10:03.375Z,10.6
2022-10-21T07:15:04.119Z,10.7
2022-10-21T07:20:02.505Z,10.7
2022-10-21T07:25:02.714Z,10.8
2022-10-21T07:30:01.933Z,10.9
2022-10-21T07:35:03.170Z,10.9
2022-10-21T07:40:03.769Z,11
2022-10-21T07:45:03.826Z,11.1
2022-10-21T07:50:02.573Z,11.1
2022-10-21T07:55:02.749Z,11.2
2022-10-21T08:00:02.058Z,11.3
2022-10-21T08:05:03.207Z,11.3
2022-10-21T08:10:03.413Z,11.3
2022-10-21T08:15:03.878Z,11.3
2022-10-21T08:20:02.524Z,11.5
2022-10-21T08:25:03.823Z,11.6
2022-10-21T08:30:01.889Z,11.8
2022-10-21T08:35:03.123Z,11.8
2022-10-21T08:40:03.250Z,11.8
2022-10-21T08:45:03.930Z,11.7
2022-10-21T08:50:02.415Z,11.7
2022-10-21T08:55:02.611Z,11.8
2022-10-21T09:00:02.830Z,12
2022-10-21T09:05:03.147Z,12.1
2022-10-21T09:10:03.890Z,12.2
2022-10-21T09:15:07.175Z,12.4
2022-10-21T09:20:02.372Z,12.7
2022-10-21T09:25:02.622Z,12.7
2022-10-21T09:30:02.009Z,12.8
2022-10-21T09:35:03.793Z,12.7
2022-10-21T09:40:03.415Z,12.7
2022-10-21T09:45:03.909Z,12.8
2022-10-21T09:50:07.157Z,12.9
2022-10-21T09:55:02.757Z,13
2022-10-21T10:00:02.002Z,13.1
2022-10-21T10:05:03.665Z,13.2
2022-10-21T10:10:03.436Z,13.4
2022-10-21T10:15:03.786Z,13.6
2022-10-21T10:20:02.585Z,13.8
2022-10-21T10:25:03.751Z,14
2022-10-21T10:30:02.709Z,14
2022-10-21T10:35:03.103Z,13.9
2022-10-21T10:40:03.294Z,14
2022-10-21T10:45:04.083Z,14.1
2022-10-21T10:50:02.578Z,13.8
2022-10-21T10:55:02.691Z,13.9
2022-10-21T11:00:03.411Z,14.1
2022-10-21T11:05:03.463Z,14.1
2022-10-21T11:10:03.341Z,14.1
2022-10-21T11:15:03.805Z,14.1
2022-10-21T11:20:02.495Z,14.1
2022-10-21T11:25:02.826Z,14.1
2022-10-21T11:30:01.758Z,14.1
2022-10-21T11:35:03.070Z,14.4
2022-10-21T11:40:03.198Z,14.7
2022-10-21T11:45:03.847Z,14.8
2022-10-21T11:50:02.422Z,14.9
2022-10-21T11:55:09.785Z,15.1
2022-10-21T12:00:03.257Z,15.5
2022-10-21T12:05:03.733Z,15.9
2022-10-21T12:10:03.148Z,16
2022-10-21T12:15:03.711Z,16
2022-10-21T12:20:02.639Z,16
2022-10-21T12:25:02.796Z,16.1
2022-10-21T12:30:02.695Z,16.4
2022-10-21T12:35:04.612Z,16.6
2022-10-21T12:40:03.053Z,17
2022-10-21T12:45:03.555Z,17.2
2022-10-21T12:50:02.451Z,17.4
2022-10-21T12:55:02.310Z,17.3
2022-10-21T13:00:02.585Z,17.4
2022-10-21T13:05:03.856Z,17.5
2022-10-21T13:10:02.967Z,18
2022-10-21T13:15:03.379Z,18.3
2022-10-21T13:20:02.218Z,18.3
2022-10-21T13:25:02.334Z,18.6
2022-10-21T13:30:04.079Z,18.9
2022-10-21T13:35:04.121Z,19.2
2022-10-21T13:40:03.018Z,19.2
2022-10-21T13:45:03.513Z,19.1
2022-10-21T13:50:02.154Z,19.3
2022-10-21T13:55:02.301Z,18.9
2022-10-21T14:00:04.004Z,18.8
2022-10-21T14:05:03.795Z,18.7
2022-10-21T14:10:03.892Z,18.9
2022-10-21T14:15:03.337Z,18.7
2022-10-21T14:20:02.132Z,18.5
2022-10-21T14:25:02.325Z,18.3
2022-10-21T14:30:03.081Z,18
2022-10-21T14:35:06.882Z,17.9
2022-10-21T14:40:03.854Z,17.8
2022-10-21T14:45:03.365Z,17.7
2022-10-21T14:50:02.037Z,17.3
2022-10-21T14:55:02.182Z,17.1
2022-10-21T15:00:03.262Z,17
2022-10-21T15:05:03.637Z,16.8
2022-10-21T15:10:03.803Z,16.5
2022-10-21T15:15:04.286Z,16.4
2022-10-21T15:20:02.034Z,16.3
2022-10-21T15:25:02.147Z,16.2
2022-10-21T15:30:02.291Z,16.2
2022-10-21T15:35:03.541Z,16.2
2022-10-21T15:40:04.109Z,16.1
2022-10-21T15:45:04.074Z,16
2022-10-21T15:50:01.818Z,15.9
2022-10-21T15:55:02.015Z,15.8
2022-10-21T16:00:02.275Z,15.7
2022-10-21T16:05:03.865Z,15.5
2022-10-21T16:10:03.758Z,15.5
2022-10-21T16:15:04.009Z,15.4
2022-10-21T16:20:02.931Z,15.3
2022-10-21T16:25:01.843Z,15.3
2022-10-21T16:30:02.137Z,15.2
2022-10-21T16:35:03.486Z,15.1
2022-10-21T16:40:03.591Z,15
2022-10-21T16:45:03.966Z,14.8
2022-10-21T16:50:02.805Z,14.6
2022-10-21T16:55:02.128Z,14.6
2022-10-21T17:00:02.221Z,14.5
2022-10-21T17:05:03.362Z,14.4
2022-10-21T17:10:03.556Z,14.4
2022-10-21T17:15:03.928Z,14.3
2022-10-21T17:20:03.654Z,14.2
2022-10-21T17:25:02.785Z,14.1
2022-10-21T17:30:01.989Z,14
2022-10-21T17:35:03.342Z,13.9
2022-10-21T17:40:03.451Z,14
2022-10-21T17:45:04.152Z,14
2022-10-21T17:50:02.716Z,14.1
2022-10-21T17:55:02.812Z,14.1
2022-10-21T18:05:03.512Z,14.1
2022-10-21T18:10:03.820Z,14.1
2022-10-21T18:15:03.866Z,14.1
2022-10-21T18:20:02.439Z,14
2022-10-21T18:25:02.630Z,14
2022-10-21T18:30:04.252Z,13.9
2022-10-21T18:35:03.201Z,13.9
2022-10-21T18:40:03.385Z,13.9
2022-10-21T18:45:04.085Z,13.9
2022-10-21T18:50:02.500Z,13.9
2022-10-21T18:55:02.768Z,13.9
2022-10-21T19:00:02.463Z,13.8
2022-10-21T19:05:03.210Z,13.8
2022-10-21T19:10:03.514Z,13.8
2022-10-21T19:15:04.109Z,13.7
2022-10-21T19:20:03.809Z,13.7
2022-10-21T19:25:02.804Z,13.6
2022-10-21T19:30:02.021Z,13.5
2022-10-21T19:35:03.355Z,13.4
2022-10-21T19:40:03.604Z,13.4
2022-10-21T19:45:04.182Z,13.4
2022-10-21T19:50:02.781Z,13.4
2022-10-21T19:55:03.128Z,13.4
2022-10-21T20:00:02.128Z,13.4
2022-10-21T20:05:03.724Z,13.3
2022-10-21T20:10:04.335Z,13.2
2022-10-21T20:15:04.335Z,13.1
2022-10-21T20:20:01.966Z,13.1
2022-10-21T20:25:02.164Z,13
2022-10-21T20:30:02.415Z,13
2022-10-21T20:35:03.740Z,13
2022-10-21T20:40:04.035Z,13
2022-10-21T20:45:03.940Z,13
2022-10-21T20:50:03.214Z,13.1
2022-10-21T20:55:02.243Z,13.1
2022-10-21T21:00:02.635Z,13
2022-10-21T21:05:03.819Z,13
2022-10-21T21:10:04.044Z,12.9
2022-10-21T21:15:03.349Z,12.9
2022-10-21T21:20:02.151Z,12.9
2022-10-21T21:25:02.466Z,12.9
2022-10-21T21:35:05.200Z,12.8
2022-10-21T21:40:03.084Z,12.7
2022-10-21T21:45:03.919Z,12.7
2022-10-21T21:50:02.183Z,12.6
2022-10-21T21:55:02.294Z,12.5
2022-10-21T22:00:03.301Z,12.3
2022-10-21T22:05:02.697Z,12.3
2022-10-21T22:10:01.870Z,12.2
2022-10-21T22:15:02.130Z,12.2
2022-10-21T22:20:02.163Z,12.1
2022-10-21T22:25:02.285Z,12
2022-10-21T22:30:02.831Z,12
2022-10-21T22:35:02.625Z,12
2022-10-21T22:40:02.716Z,12.1
2022-10-21T22:45:03.358Z,12
2022-10-21T22:50:02.059Z,12
2022-10-21T22:55:04.469Z,11.9
2022-10-21T23:00:04.769Z,11.9
2022-10-21T23:05:04.346Z,12
2022-10-21T23:10:03.124Z,12
2022-10-21T23:15:04.099Z,12.1
2022-10-21T23:20:01.821Z,12.1
2022-10-21T23:25:02.093Z,12.1
2022-10-21T23:30:02.271Z,12.2
2022-10-21T23:35:02.239Z,12.3
2022-10-21T23:40:02.419Z,12.4
2022-10-21T23:45:02.727Z,12.5
2022-10-21T23:50:02.680Z,12.6
2022-10-21T23:55:01.891Z,12.7
